Thunder radar more information blitzortung!


Radar de pluja more information rain snow radar


Visita la nostra xarxa de llocs de meteo:

Template documentation
and downloads

And another site



No particular awareness of the weather is required.    There are no Weather-warnings

Pagina Historial Weather Underground text

Diari Resum Abril 30, 2016 Unitats:  Mètric    Imperial   Tant
« Previous Dia
SegĂźent Dia »
Diari Setmana Mensual Anual Personalitzada
  Maxima: Minima: Media:
Temperatura: 20.8 °C 9.8 °C 13.6 °C
Punt de rosada: 12.8 °C 1.1 °C 8.4 °C
Humitat: 90 % 41 % 72 %
Wind Speed: 31.5 km/h 0.0 km/h 8.3 km/h
RĂ fegues de vent: 31.5 km/h - -
Vent:- - SSE
Pression baro: 1022.9 hPa 1016.8 hPa -
Precipitacions: 2.0 mm    
Historical Graphs
 
 
Dades de taula per Abril 30, 2016
Temps Temperatura Punt de rosada Pression baro Vent Wind Speed RĂ fegues de vent Humitat Rainfall Rate (Hourly)
00:04 11.7 °C 7.6 °C 1018.8 hPa Calm     76 % 0.0 mm
00:05 10.6 °C 7.3 °C 1017.8 hPa Calm     80 % 0.0 mm
00:15 10.5 °C 7.2 °C 1017.8 hPa Calm   3.2 km/h 80 % 0.0 mm
00:25 10.4 °C 7.3 °C 1017.8 hPa SW 1.6 km/h 3.2 km/h 81 % 0.0 mm
00:35 10.4 °C 7.3 °C 1017.8 hPa Calm   1.6 km/h 81 % 0.0 mm
00:45 10.4 °C 7.4 °C 1017.8 hPa WSW 1.6 km/h 1.6 km/h 82 % 0.0 mm
00:55 10.4 °C 7.4 °C 1017.8 hPa WSW 1.6 km/h 3.2 km/h 82 % 0.0 mm
01:05 10.5 °C 7.7 °C 1016.8 hPa West 1.6 km/h 1.6 km/h 83 % 0.0 mm
01:15 10.6 °C 8.0 °C 1016.8 hPa Calm     84 % 0.0 mm
01:25 10.6 °C 8.0 °C 1016.8 hPa Calm     84 % 1.0 mm
01:35 10.6 °C 8.2 °C 1017.8 hPa Calm     85 % 1.0 mm
01:45 10.6 °C 8.2 °C 1017.8 hPa Calm   1.6 km/h 85 % 0.0 mm
01:55 10.5 °C 8.1 °C 1017.8 hPa Calm   1.6 km/h 85 % 1.0 mm
02:05 10.5 °C 8.3 °C 1017.8 hPa South 1.6 km/h 3.2 km/h 86 % 1.0 mm
02:15 10.4 °C 8.2 °C 1016.8 hPa Calm   1.6 km/h 86 % 0.0 mm
02:35 10.2 °C 7.8 °C 1016.8 hPa SSE 1.6 km/h 4.8 km/h 85 % 0.0 mm
02:45 10.2 °C 7.8 °C 1016.8 hPa SSW 1.6 km/h 3.2 km/h 85 % 0.0 mm
02:55 10.3 °C 8.1 °C 1016.8 hPa Calm   3.2 km/h 86 % 0.0 mm
03:05 10.4 °C 8.2 °C 1017.8 hPa Calm     86 % 0.0 mm
03:15 10.5 °C 8.4 °C 1017.8 hPa Calm   3.2 km/h 87 % 0.0 mm
03:25 10.6 °C 8.7 °C 1017.8 hPa Calm   4.8 km/h 88 % 0.0 mm
03:35 10.7 °C 8.8 °C 1017.8 hPa NNW 1.6 km/h 6.4 km/h 88 % 0.0 mm
03:45 10.7 °C 8.9 °C 1017.8 hPa South 1.6 km/h 3.2 km/h 89 % 0.0 mm
03:55 10.8 °C 8.9 °C 1017.8 hPa Calm   3.2 km/h 88 % 0.0 mm
04:05 10.9 °C 9.2 °C 1017.8 hPa Calm   1.6 km/h 89 % 0.0 mm
04:15 11.0 °C 8.9 °C 1017.8 hPa SW 1.6 km/h 3.2 km/h 87 % 0.0 mm
04:25 11.1 °C 9.2 °C 1017.8 hPa SW 1.6 km/h 3.2 km/h 88 % 0.0 mm
04:35 11.4 °C 9.5 °C 1016.8 hPa Calm   1.6 km/h 88 % 0.0 mm
04:45 11.6 °C 9.7 °C 1017.8 hPa WSW 1.6 km/h 1.6 km/h 88 % 0.0 mm
04:55 11.7 °C 9.9 °C 1017.8 hPa Calm   1.6 km/h 89 % 0.0 mm
05:05 11.9 °C 10.3 °C 1017.8 hPa NNE 1.6 km/h 3.2 km/h 90 % 0.0 mm
05:15 12.0 °C 10.4 °C 1017.8 hPa NE 1.6 km/h 3.2 km/h 90 % 0.0 mm
05:25 12.1 °C 10.5 °C 1017.8 hPa NE 3.2 km/h 3.2 km/h 90 % 0.0 mm
05:35 12.2 °C 10.6 °C 1017.8 hPa Calm     90 % 0.0 mm
05:45 12.4 °C 10.8 °C 1017.8 hPa NE 1.6 km/h 1.6 km/h 90 % 0.0 mm
10:46 12.5 °C 10.9 °C 1017.8 hPa Calm     90 % 0.0 mm
10:51 12.6 °C 11.0 °C 1017.8 hPa ENE 1.9 km/h   90 % 0.0 mm
10:56 12.6 °C 11.0 °C 1017.8 hPa ENE 1.9 km/h   90 % 0.0 mm
11:01 12.6 °C 11.0 °C 1017.8 hPa Calm     90 % 0.0 mm
11:06 12.8 °C 11.2 °C 1017.8 hPa SW 1.9 km/h 1.9 km/h 90 % 0.0 mm
11:11 12.8 °C 11.1 °C 1017.8 hPa SW 1.9 km/h   89 % 0.0 mm
11:16 13.0 °C 11.4 °C 1017.8 hPa SW 2.6 km/h   90 % 0.0 mm
11:21 13.0 °C 11.4 °C 1017.8 hPa South 3.7 km/h 3.9 km/h 90 % 0.0 mm
11:26 13.1 °C 11.5 °C 1017.8 hPa South 5.6 km/h 5.6 km/h 90 % 0.0 mm
11:31 13.2 °C 11.4 °C 1017.8 hPa ESE 5.6 km/h 5.6 km/h 89 % 0.0 mm
11:36 13.2 °C 11.4 °C 1017.8 hPa ESE 3.7 km/h 3.7 km/h 89 % 0.0 mm
11:41 13.5 °C 11.7 °C 1017.8 hPa SSE 1.9 km/h   89 % 0.0 mm
11:46 13.8 °C 11.8 °C 1017.8 hPa WSW 3.7 km/h 3.9 km/h 88 % 0.0 mm
11:51 14.3 °C 12.3 °C 1017.8 hPa SSE 1.9 km/h   88 % 0.0 mm
11:56 14.5 °C 12.6 °C 1017.8 hPa SE 3.7 km/h 3.7 km/h 88 % 0.0 mm
12:01 14.6 °C 12.4 °C 1017.8 hPa SW 5.6 km/h 5.6 km/h 87 % 0.0 mm
12:06 15.0 °C 12.8 °C 1017.8 hPa South 3.7 km/h 3.7 km/h 87 % 0.0 mm
12:11 15.1 °C 12.8 °C 1017.8 hPa WSW 7.4 km/h 7.4 km/h 86 % 0.0 mm
12:16 15.0 °C 11.9 °C 1017.8 hPa West 9.3 km/h 9.3 km/h 82 % 0.0 mm
12:21 15.1 °C 11.7 °C 1017.8 hPa NW 5.6 km/h 5.6 km/h 80 % 0.0 mm
12:26 15.1 °C 11.5 °C 1017.8 hPa WNW 3.7 km/h 4.2 km/h 79 % 0.0 mm
12:31 15.4 °C 11.8 °C 1017.8 hPa SSW 5.6 km/h 5.6 km/h 79 % 0.0 mm
12:36 15.3 °C 11.5 °C 1017.8 hPa WSW 9.3 km/h 9.3 km/h 78 % 0.0 mm
12:41 15.4 °C 11.4 °C 1017.8 hPa West 5.0 km/h 5.8 km/h 77 % 0.0 mm
12:46 15.5 °C 11.1 °C 1017.8 hPa WSW 7.4 km/h 7.4 km/h 75 % 0.0 mm
12:51 15.9 °C 11.3 °C 1017.8 hPa SW 11.1 km/h 11.1 km/h 74 % 0.0 mm
12:56 16.2 °C 11.6 °C 1017.8 hPa WSW 7.9 km/h 7.9 km/h 74 % 0.0 mm
13:01 16.1 °C 11.3 °C 1017.8 hPa WSW 3.7 km/h 3.7 km/h 73 % 0.0 mm
13:06 16.3 °C 11.7 °C 1017.8 hPa SW 3.7 km/h 3.7 km/h 74 % 0.0 mm
13:11 16.9 °C 11.8 °C 1017.8 hPa WSW 6.4 km/h 6.4 km/h 72 % 0.0 mm
13:16 16.5 °C 10.6 °C 1017.8 hPa SW 9.3 km/h 9.3 km/h 68 % 0.0 mm
13:21 16.8 °C 10.8 °C 1017.8 hPa WSW 5.6 km/h 5.6 km/h 68 % 0.0 mm
13:26 17.3 °C 11.3 °C 1017.8 hPa WSW 5.6 km/h 5.6 km/h 68 % 0.0 mm
13:31 17.8 °C 11.6 °C 1017.8 hPa SW 9.7 km/h 9.7 km/h 67 % 0.0 mm
13:36 17.8 °C 11.1 °C 1017.8 hPa SE 11.1 km/h 11.1 km/h 65 % 0.0 mm
13:41 18.0 °C 11.6 °C 1017.8 hPa SW 5.6 km/h 5.6 km/h 66 % 0.0 mm
13:46 18.5 °C 11.6 °C 1017.8 hPa NE 3.7 km/h 3.7 km/h 64 % 0.0 mm
13:51 18.8 °C 11.6 °C 1017.8 hPa NNE 3.7 km/h 3.7 km/h 63 % 0.0 mm
13:56 19.3 °C 11.8 °C 1017.8 hPa WSW 7.4 km/h 7.4 km/h 62 % 0.0 mm
14:01 19.4 °C 11.2 °C 1017.8 hPa SW 7.4 km/h 7.4 km/h 59 % 0.0 mm
14:06 18.8 °C 9.6 °C 1017.8 hPa SW 9.3 km/h 9.5 km/h 55 % 0.0 mm
14:11 18.8 °C 10.3 °C 1017.8 hPa WSW 5.6 km/h 5.8 km/h 58 % 0.0 mm
14:16 18.4 °C 9.4 °C 1017.8 hPa WSW 9.3 km/h 9.3 km/h 56 % 0.0 mm
14:21 18.2 °C 9.3 °C 1017.8 hPa WSW 9.7 km/h 9.7 km/h 56 % 0.0 mm
14:31 18.8 °C 9.3 °C 1016.8 hPa WSW 9.3 km/h 9.3 km/h 54 % 0.0 mm
14:36 19.0 °C 9.2 °C 1016.8 hPa SSW 7.4 km/h 7.4 km/h 53 % 0.0 mm
14:41 19.4 °C 9.3 °C 1017.8 hPa West 11.1 km/h 11.1 km/h 52 % 0.0 mm
14:46 19.6 °C 9.2 °C 1017.8 hPa WSW 7.4 km/h 7.4 km/h 51 % 0.0 mm
14:56 19.6 °C 8.6 °C 1016.8 hPa WSW 10.0 km/h 10.0 km/h 49 % 0.0 mm
15:01 19.7 °C 8.4 °C 1016.8 hPa WSW 9.3 km/h 9.3 km/h 48 % 0.0 mm
15:06 19.9 °C 8.2 °C 1016.8 hPa South 9.5 km/h 9.5 km/h 47 % 0.0 mm
15:11 20.2 °C 8.2 °C 1017.8 hPa WSW 6.1 km/h 6.1 km/h 46 % 0.0 mm
15:16 20.3 °C 7.9 °C 1017.8 hPa WNW 7.4 km/h 7.9 km/h 45 % 0.0 mm
15:21 20.1 °C 8.1 °C 1017.8 hPa WSW 6.1 km/h 6.1 km/h 46 % 0.0 mm
15:26 20.5 °C 7.8 °C 1017.8 hPa WSW 7.4 km/h 7.4 km/h 44 % 0.0 mm
15:31 20.8 °C 8.1 °C 1017.8 hPa WSW 9.5 km/h 9.5 km/h 44 % 0.0 mm
15:36 20.4 °C 6.7 °C 1017.8 hPa ESE 9.3 km/h 9.3 km/h 41 % 0.0 mm
15:41 19.2 °C 8.2 °C 1017.8 hPa NNE 9.3 km/h 9.3 km/h 49 % 0.0 mm
15:46 18.6 °C 8.6 °C 1017.8 hPa East 9.3 km/h 9.3 km/h 52 % 0.0 mm
15:51 18.3 °C 8.6 °C 1017.8 hPa NNE 9.3 km/h 9.3 km/h 53 % 0.0 mm
15:56 17.2 °C 8.1 °C 1017.8 hPa East 14.8 km/h 14.8 km/h 55 % 0.0 mm
16:01 16.3 °C 8.3 °C 1017.8 hPa East 27.8 km/h 27.8 km/h 59 % 0.0 mm
16:06 15.4 °C 7.9 °C 1017.8 hPa ESE 21.7 km/h 21.7 km/h 61 % 0.0 mm
16:11 15.1 °C 8.1 °C 1017.8 hPa East 22.2 km/h 22.2 km/h 63 % 0.0 mm
16:16 15.0 °C 8.0 °C 1017.8 hPa ESE 24.1 km/h 24.1 km/h 63 % 0.0 mm
16:21 15.0 °C 8.2 °C 1017.8 hPa ESE 20.4 km/h 20.4 km/h 64 % 0.0 mm
16:26 14.8 °C 8.1 °C 1017.8 hPa East 20.4 km/h 20.4 km/h 64 % 0.0 mm
16:31 14.9 °C 8.4 °C 1017.8 hPa East 20.4 km/h 20.4 km/h 65 % 0.0 mm
16:36 15.2 °C 8.4 °C 1017.8 hPa East 18.5 km/h 18.5 km/h 64 % 0.0 mm
16:41 15.0 °C 8.4 °C 1017.8 hPa East 22.2 km/h 22.2 km/h 65 % 0.0 mm
16:46 15.0 °C 8.4 °C 1017.8 hPa ENE 25.9 km/h 25.9 km/h 65 % 0.0 mm
16:51 14.8 °C 8.5 °C 1017.8 hPa ENE 27.8 km/h 27.8 km/h 66 % 0.0 mm
16:52 14.8 °C 8.7 °C 1017.8 hPa ENE 16.7 km/h 16.7 km/h 67 % 0.0 mm
17:02 14.6 °C 8.6 °C 1017.8 hPa ESE 27.8 km/h 27.8 km/h 67 % 0.0 mm
17:07 14.6 °C 8.8 °C 1017.8 hPa ENE 25.9 km/h 25.9 km/h 68 % 0.0 mm
17:12 14.4 °C 8.6 °C 1017.8 hPa ENE 31.5 km/h 31.5 km/h 68 % 0.0 mm
17:17 14.3 °C 8.4 °C 1017.8 hPa ENE 27.8 km/h 27.8 km/h 68 % 0.0 mm
17:22 14.2 °C 8.4 °C 1017.8 hPa East 22.2 km/h 22.2 km/h 68 % 0.0 mm
17:27 14.2 °C 8.4 °C 1017.8 hPa East 18.5 km/h 18.5 km/h 68 % 0.0 mm
17:32 14.0 °C 8.2 °C 1017.8 hPa ENE 23.0 km/h 23.0 km/h 68 % 0.0 mm
17:37 13.9 °C 8.1 °C 1017.8 hPa ESE 20.4 km/h 20.4 km/h 68 % 0.0 mm
17:42 13.9 °C 8.1 °C 1017.8 hPa ESE 13.0 km/h 13.0 km/h 68 % 0.0 mm
17:47 13.9 °C 8.1 °C 1017.8 hPa ESE 23.7 km/h 23.7 km/h 68 % 0.0 mm
17:52 13.7 °C 7.9 °C 1017.8 hPa ESE 14.8 km/h 15.1 km/h 68 % 0.0 mm
17:57 13.6 °C 7.8 °C 1017.8 hPa ESE 16.7 km/h 16.7 km/h 68 % 0.0 mm
18:02 13.9 °C 8.1 °C 1017.8 hPa ESE 20.4 km/h 20.4 km/h 68 % 0.0 mm
18:07 13.8 °C 8.0 °C 1017.8 hPa ESE 16.7 km/h 16.7 km/h 68 % 0.0 mm
18:12 14.0 °C 8.2 °C 1018.8 hPa SE 16.4 km/h 16.4 km/h 68 % 0.0 mm
18:17 13.8 °C 7.8 °C 1018.8 hPa ESE 20.4 km/h 20.4 km/h 67 % 0.0 mm
18:22 13.7 °C 7.7 °C 1018.8 hPa East 14.8 km/h 14.8 km/h 67 % 0.0 mm
18:27 13.6 °C 7.8 °C 1018.8 hPa ESE 13.0 km/h 13.0 km/h 68 % 0.0 mm
18:32 13.5 °C 7.7 °C 1018.8 hPa ESE 18.5 km/h 18.5 km/h 68 % 0.0 mm
18:37 13.4 °C 7.4 °C 1018.8 hPa ESE 25.9 km/h 25.9 km/h 67 % 0.0 mm
18:42 13.4 °C 7.6 °C 1018.8 hPa SE 18.5 km/h 18.5 km/h 68 % 0.0 mm
18:47 13.3 °C 7.3 °C 1018.8 hPa ESE 16.7 km/h 16.7 km/h 67 % 0.0 mm
18:52 13.5 °C 7.5 °C 1018.8 hPa South 13.0 km/h 13.0 km/h 67 % 0.0 mm
18:57 13.5 °C 7.7 °C 1018.8 hPa ENE 9.3 km/h 9.3 km/h 68 % 0.0 mm
19:02 13.4 °C 7.6 °C 1018.8 hPa ESE 13.0 km/h 13.0 km/h 68 % 0.0 mm
19:03 13.4 °C 7.6 °C 1018.8 hPa East 13.0 km/h 13.0 km/h 68 % 0.0 mm
19:08 13.2 °C 7.4 °C 1018.8 hPa ESE 13.0 km/h 13.0 km/h 68 % 0.0 mm
19:13 13.1 °C 7.3 °C 1018.8 hPa ESE 13.0 km/h 13.0 km/h 68 % 0.0 mm
19:18 13.2 °C 7.6 °C 1018.8 hPa East 16.9 km/h 16.9 km/h 69 % 0.0 mm
19:23 13.0 °C 7.4 °C 1018.8 hPa ESE 16.7 km/h 16.7 km/h 69 % 0.0 mm
19:28 12.9 °C 7.3 °C 1018.8 hPa East 11.1 km/h 11.1 km/h 69 % 0.0 mm
19:33 12.8 °C 7.3 °C 1018.8 hPa ESE 11.1 km/h 11.1 km/h 69 % 0.0 mm
19:38 12.7 °C 7.4 °C 1018.8 hPa ESE 9.3 km/h 9.3 km/h 70 % 0.0 mm
19:43 12.6 °C 7.3 °C 1018.8 hPa ESE 20.4 km/h 20.4 km/h 70 % 0.0 mm
19:48 12.5 °C 7.2 °C 1018.8 hPa East 14.8 km/h 14.8 km/h 70 % 0.0 mm
19:53 12.4 °C 7.1 °C 1018.8 hPa ESE 14.8 km/h 14.8 km/h 70 % 0.0 mm
19:58 12.4 °C 7.3 °C 1019.9 hPa ESE 11.1 km/h 11.1 km/h 71 % 0.0 mm
20:03 12.3 °C 7.4 °C 1019.9 hPa ESE 15.6 km/h 15.6 km/h 72 % 0.0 mm
20:08 12.3 °C 7.4 °C 1019.9 hPa ESE 9.3 km/h 9.3 km/h 72 % 0.0 mm
20:13 12.3 °C 7.4 °C 1019.9 hPa ENE 11.1 km/h 11.1 km/h 72 % 0.0 mm
20:18 12.2 °C 7.3 °C 1019.9 hPa ESE 13.0 km/h 13.0 km/h 72 % 0.0 mm
20:23 12.2 °C 7.3 °C 1019.9 hPa NE 9.0 km/h 9.0 km/h 72 % 0.0 mm
20:28 12.1 °C 7.4 °C 1019.9 hPa ESE 7.4 km/h 7.4 km/h 73 % 0.0 mm
20:33 12.1 °C 7.4 °C 1019.9 hPa ENE 7.4 km/h 7.4 km/h 73 % 0.0 mm
20:38 12.2 °C 7.5 °C 1019.9 hPa East 3.7 km/h 3.7 km/h 73 % 0.0 mm
20:43 12.1 °C 7.4 °C 1019.9 hPa SSW 3.7 km/h 3.7 km/h 73 % 0.0 mm
20:48 12.1 °C 7.4 °C 1019.9 hPa East 5.0 km/h 5.0 km/h 73 % 0.0 mm
20:53 12.1 °C 7.4 °C 1019.9 hPa SSE 3.7 km/h 3.7 km/h 73 % 0.0 mm
20:58 12.1 °C 7.4 °C 1019.9 hPa ESE 2.3 km/h 2.3 km/h 73 % 0.0 mm
21:03 12.1 °C 7.4 °C 1019.9 hPa ESE 5.6 km/h 5.6 km/h 73 % 0.0 mm
21:08 12.0 °C 7.3 °C 1019.9 hPa SE 7.4 km/h 7.4 km/h 73 % 0.0 mm
21:18 12.0 °C 7.3 °C 1019.9 hPa ESE 5.0 km/h 5.0 km/h 73 % 0.0 mm
21:23 12.0 °C 7.3 °C 1019.9 hPa ESE 9.3 km/h 9.3 km/h 73 % 0.0 mm
21:28 12.0 °C 7.3 °C 1020.9 hPa South 5.6 km/h 5.6 km/h 73 % 0.0 mm
21:33 12.0 °C 7.3 °C 1020.9 hPa ESE 3.7 km/h 3.7 km/h 73 % 0.0 mm
21:38 12.0 °C 7.1 °C 1020.9 hPa Calm     72 % 0.0 mm
21:43 11.9 °C 7.0 °C 1021.9 hPa SW 3.7 km/h 3.7 km/h 72 % 0.0 mm
21:48 11.8 °C 7.1 °C 1021.9 hPa SW 3.2 km/h 3.2 km/h 73 % 0.0 mm
21:53 11.7 °C 7.0 °C 1021.9 hPa SW 3.7 km/h 3.7 km/h 73 % 0.0 mm
21:58 11.7 °C 7.0 °C 1021.9 hPa WSW 3.7 km/h 3.7 km/h 73 % 0.0 mm
22:03 11.6 °C 6.9 °C 1021.9 hPa SW 3.7 km/h 3.7 km/h 73 % 0.0 mm
22:08 11.5 °C 7.0 °C 1021.9 hPa SW 1.9 km/h 1.9 km/h 74 % 0.0 mm
22:13 11.4 °C 7.1 °C 1021.9 hPa Calm     75 % 0.0 mm
22:18 11.3 °C 7.0 °C 1021.9 hPa Calm     75 % 0.0 mm
22:23 11.2 °C 6.9 °C 1021.9 hPa Calm     75 % 0.0 mm
22:28 11.1 °C 6.6 °C 1022.9 hPa WSW 4.7 km/h 4.7 km/h 74 % 0.0 mm
22:33 10.9 °C 6.7 °C 1022.9 hPa WSW 3.7 km/h 3.7 km/h 75 % 0.0 mm
22:38 10.8 °C 6.6 °C 1022.9 hPa WNW 2.6 km/h 2.6 km/h 75 % 0.0 mm
22:43 10.8 °C 6.6 °C 1020.9 hPa WSW 3.7 km/h 3.7 km/h 75 % 0.0 mm
22:48 10.6 °C 6.3 °C 1020.9 hPa West 3.7 km/h 3.7 km/h 75 % 0.0 mm
22:53 10.5 °C 6.3 °C 1020.9 hPa SW 3.9 km/h 3.9 km/h 75 % 0.0 mm
22:58 10.4 °C 5.9 °C 1021.9 hPa West 5.3 km/h 5.3 km/h 74 % 0.0 mm
23:03 10.4 °C 5.8 °C 1021.9 hPa West 5.3 km/h 5.3 km/h 73 % 0.0 mm
23:08 10.5 °C 5.1 °C 1021.9 hPa WSW 5.6 km/h 5.6 km/h 69 % 0.0 mm
23:13 10.4 °C 4.6 °C 1020.9 hPa SW 3.7 km/h 3.7 km/h 67 % 0.0 mm
23:18 10.4 °C 4.1 °C 1020.9 hPa SSW 6.1 km/h 6.1 km/h 65 % 0.0 mm
23:23 10.3 °C 3.6 °C 1020.9 hPa WSW 6.9 km/h 6.9 km/h 63 % 0.0 mm
23:28 10.0 °C 3.1 °C 1021.9 hPa WSW 5.6 km/h 5.6 km/h 62 % 0.0 mm
23:33 9.8 °C 2.8 °C 1021.9 hPa SSW 5.6 km/h 5.6 km/h 62 % 0.0 mm
23:38 10.0 °C 2.3 °C 1021.9 hPa SW 11.1 km/h 11.1 km/h 59 % 0.0 mm
23:43 10.1 °C 1.7 °C 1021.9 hPa WSW 9.3 km/h 9.3 km/h 56 % 0.0 mm
23:48 10.0 °C 1.6 °C 1021.9 hPa SW 8.7 km/h 8.7 km/h 56 % 0.0 mm
23:53 10.0 °C 1.4 °C 1021.9 hPa WSW 6.4 km/h 6.4 km/h 55 % 0.0 mm
23:58 10.0 °C 1.1 °C 1021.9 hPa WSW 7.4 km/h 7.4 km/h 54 % 0.0 mm
Meteo Sesrovires
Elogis d' Weather Underground - 3.5 mb

Guio original per  Jim McMurry - jmcmurry@mwt.net Adaptat per a la plantilla per  Wim van der Kuil - Leuven-Template.eu

Trobareu la nostra informacio del temps tambe a:

Weather Underground

AWEKAS